createdAt,value
2018-01-14T00:02:15.901Z,53.60
2018-01-14T00:04:42.478Z,53.70
2018-01-14T00:07:09.280Z,53.70
2018-01-14T00:09:35.862Z,53.70
2018-01-14T00:12:02.434Z,53.70
2018-01-14T00:14:29.010Z,53.70
2018-01-14T00:16:55.617Z,53.70
2018-01-14T00:19:22.197Z,53.70
2018-01-14T00:21:48.720Z,53.80
2018-01-14T00:24:15.266Z,53.90
2018-01-14T00:26:41.893Z,53.90
2018-01-14T00:29:08.444Z,53.90
2018-01-14T00:31:34.993Z,53.90
2018-01-14T00:34:01.758Z,54.00
2018-01-14T00:36:28.346Z,54.00
2018-01-14T00:38:54.933Z,54.10
2018-01-14T00:41:21.834Z,54.10
2018-01-14T00:43:48.449Z,54.20
2018-01-14T00:46:15.001Z,54.20
2018-01-14T00:48:41.633Z,54.20
2018-01-14T00:51:08.161Z,54.30
2018-01-14T00:53:34.710Z,54.20
2018-01-14T00:56:01.372Z,54.30
2018-01-14T00:58:27.910Z,54.30
2018-01-14T01:00:54.449Z,54.30
2018-01-14T01:03:21.450Z,54.30
2018-01-14T01:05:48.009Z,54.30
2018-01-14T01:08:14.564Z,54.30
2018-01-14T01:10:41.516Z,54.40
2018-01-14T01:13:08.066Z,54.40
2018-01-14T01:15:34.629Z,54.40
2018-01-14T01:18:01.505Z,54.40
2018-01-14T01:20:30.580Z,54.40
2018-01-14T01:22:57.164Z,54.50
2018-01-14T01:25:23.758Z,54.50
2018-01-14T01:27:50.322Z,54.50
2018-01-14T01:30:16.850Z,54.40
2018-01-14T01:32:43.440Z,54.40
2018-01-14T01:35:09.994Z,54.30
2018-01-14T01:37:36.525Z,54.30
2018-01-14T01:40:03.183Z,54.30
2018-01-14T01:42:29.836Z,54.20
2018-01-14T01:44:56.414Z,54.30
2018-01-14T01:47:23.058Z,54.20
2018-01-14T01:49:50.533Z,54.20
2018-01-14T01:52:20.285Z,54.20
2018-01-14T01:54:47.278Z,54.20
2018-01-14T01:57:14.837Z,54.20
2018-01-14T01:59:41.498Z,54.20
2018-01-14T02:02:08.874Z,54.20
2018-01-14T02:04:37.802Z,54.10
2018-01-14T02:07:10.570Z,54.20
2018-01-14T02:09:38.594Z,54.20
2018-01-14T02:12:05.275Z,54.20
2018-01-14T02:14:32.265Z,54.10
2018-01-14T02:16:58.826Z,54.10
2018-01-14T02:19:25.469Z,54.10
2018-01-14T02:21:52.106Z,54.10
2018-01-14T02:24:19.494Z,54.00
2018-01-14T02:26:46.486Z,53.90
2018-01-14T02:29:13.078Z,54.10
2018-01-14T02:31:40.086Z,54.00
2018-01-14T02:34:06.729Z,54.00
2018-01-14T02:36:33.386Z,54.10
2018-01-14T02:39:00.378Z,54.00
2018-01-14T02:41:27.315Z,54.10
2018-01-14T02:43:54.022Z,54.10
2018-01-14T02:46:21.036Z,53.90
2018-01-14T02:48:47.707Z,54.00
2018-01-14T02:51:14.698Z,53.90
2018-01-14T02:53:41.295Z,53.90
2018-01-14T02:56:08.673Z,53.70
2018-01-14T02:58:35.245Z,53.90
2018-01-14T03:01:01.862Z,53.80
2018-01-14T03:03:28.510Z,53.80
2018-01-14T03:05:55.078Z,53.80
2018-01-14T03:08:21.685Z,53.70
2018-01-14T03:10:48.317Z,53.70
2018-01-14T03:13:14.895Z,53.70
2018-01-14T03:15:42.015Z,53.50
2018-01-14T03:18:08.602Z,53.70
2018-01-14T03:20:35.214Z,53.70
2018-01-14T03:23:05.224Z,53.60
2018-01-14T03:25:35.130Z,53.60
2018-01-14T03:28:01.722Z,53.60
2018-01-14T03:30:29.566Z,53.60
2018-01-14T03:32:56.684Z,53.40
2018-01-14T03:35:23.687Z,53.60
2018-01-14T03:37:53.335Z,53.40
2018-01-14T03:40:20.422Z,53.60
2018-01-14T03:42:47.825Z,53.30
2018-01-14T03:45:14.461Z,53.50
2018-01-14T03:47:41.471Z,53.30
2018-01-14T03:50:08.082Z,53.50
2018-01-14T03:52:34.665Z,53.50
2018-01-14T03:55:01.226Z,53.40
2018-01-14T03:57:27.978Z,53.40
2018-01-14T03:59:54.591Z,53.50
2018-01-14T04:02:21.175Z,53.40
2018-01-14T04:04:48.173Z,53.20
2018-01-14T04:07:14.782Z,53.40
2018-01-14T04:09:41.342Z,53.30
2018-01-14T04:12:07.974Z,53.40
2018-01-14T04:14:34.562Z,53.30
2018-01-14T04:17:01.180Z,53.20
2018-01-14T04:19:28.173Z,53.10
2018-01-14T04:21:54.746Z,53.40
2018-01-14T04:24:21.702Z,53.20
2018-01-14T04:26:48.351Z,53.30
2018-01-14T04:29:14.951Z,53.30
2018-01-14T04:31:41.622Z,53.20
2018-01-14T04:34:08.192Z,53.20
2018-01-14T04:36:35.170Z,52.90
2018-01-14T04:39:01.846Z,53.10
2018-01-14T04:41:28.462Z,53.10
2018-01-14T04:43:55.141Z,53.10
2018-01-14T04:46:22.167Z,52.90
2018-01-14T04:48:49.717Z,53.10
2018-01-14T04:51:16.463Z,53.20
2018-01-14T04:53:43.101Z,53.10
2018-01-14T04:56:09.723Z,53.10
2018-01-14T04:58:36.324Z,53.00
2018-01-14T05:01:03.027Z,53.20
2018-01-14T05:03:29.635Z,53.10
2018-01-14T05:05:56.297Z,53.00
2018-01-14T05:08:22.922Z,53.00
2018-01-14T05:10:49.477Z,53.00
2018-01-14T05:13:16.447Z,53.00
2018-01-14T05:15:43.017Z,53.00
2018-01-14T05:18:09.572Z,53.00
2018-01-14T05:20:36.216Z,53.10
2018-01-14T05:23:02.813Z,52.90
2018-01-14T05:25:29.391Z,53.00
2018-01-14T05:27:56.090Z,53.00
2018-01-14T05:30:22.730Z,52.90
2018-01-14T05:32:49.346Z,53.00
2018-01-14T05:35:16.350Z,52.70
2018-01-14T05:37:42.955Z,53.00
2018-01-14T05:40:09.551Z,52.90
2018-01-14T05:42:36.615Z,52.70
2018-01-14T05:45:03.242Z,52.80
2018-01-14T05:47:30.231Z,52.60
2018-01-14T05:49:59.065Z,52.60
2018-01-14T05:52:25.695Z,52.80
2018-01-14T05:54:52.319Z,52.90
2018-01-14T05:57:19.433Z,52.80
2018-01-14T05:59:46.108Z,52.80
2018-01-14T06:02:12.694Z,52.80
2018-01-14T06:04:39.331Z,52.70
2018-01-14T06:07:05.935Z,52.80
2018-01-14T06:09:32.594Z,52.80
2018-01-14T06:11:59.549Z,52.70
2018-01-14T06:14:26.136Z,52.80
2018-01-14T06:16:52.848Z,52.90
2018-01-14T06:19:19.472Z,52.80
2018-01-14T06:21:46.089Z,52.90
2018-01-14T06:24:13.153Z,52.60
2018-01-14T06:26:43.283Z,52.90
2018-01-14T06:29:10.210Z,52.90
2018-01-14T06:31:37.214Z,52.60
2018-01-14T06:34:03.952Z,52.80
2018-01-14T06:36:30.853Z,52.70
2018-01-14T06:38:57.449Z,52.70
2018-01-14T06:41:24.076Z,52.70
2018-01-14T06:43:50.677Z,52.70
2018-01-14T06:46:17.292Z,52.70
2018-01-14T06:48:43.925Z,52.70
2018-01-14T06:51:10.576Z,52.70
2018-01-14T06:53:37.174Z,52.70
2018-01-14T06:56:03.797Z,52.70
2018-01-14T06:58:31.173Z,52.50
2018-01-14T07:00:58.178Z,52.50
2018-01-14T07:03:24.835Z,52.70
2018-01-14T07:05:51.504Z,52.70
2018-01-14T07:08:18.113Z,52.80
2018-01-14T07:10:45.194Z,52.50
2018-01-14T07:13:12.183Z,52.50
2018-01-14T07:15:38.738Z,52.70
2018-01-14T07:18:05.366Z,52.50
2018-01-14T07:20:31.950Z,52.40
2018-01-14T07:22:58.905Z,52.20
2018-01-14T07:25:25.540Z,52.30
2018-01-14T07:27:52.130Z,52.20
2018-01-14T07:30:18.742Z,52.10
2018-01-14T07:32:45.290Z,52.10
2018-01-14T07:35:11.919Z,52.00
2018-01-14T07:37:38.578Z,51.90
2018-01-14T07:40:05.168Z,51.80
2018-01-14T07:42:31.790Z,51.80
2018-01-14T07:44:58.798Z,51.50
2018-01-14T07:47:25.378Z,51.50
2018-01-14T07:49:52.438Z,51.30
2018-01-14T07:52:19.790Z,51.50
2018-01-14T07:54:46.374Z,51.30
2018-01-14T07:57:12.984Z,51.40
2018-01-14T07:59:39.606Z,51.40
2018-01-14T08:02:06.181Z,51.40
2018-01-14T08:04:32.834Z,51.40
2018-01-14T08:06:59.430Z,51.30
2018-01-14T08:09:26.040Z,51.30
2018-01-14T08:11:52.665Z,51.30
2018-01-14T08:14:19.639Z,51.10
2018-01-14T08:16:46.311Z,51.30
2018-01-14T08:19:12.980Z,51.30
2018-01-14T08:21:39.992Z,51.10
2018-01-14T08:24:06.651Z,51.40
2018-01-14T08:26:33.670Z,51.40
2018-01-14T08:29:00.295Z,51.40
2018-01-14T08:31:26.920Z,51.30
2018-01-14T08:33:53.563Z,51.50
2018-01-14T08:36:20.178Z,51.40
2018-01-14T08:38:46.778Z,51.40
2018-01-14T08:41:13.431Z,51.50
2018-01-14T08:43:40.053Z,51.40
2018-01-14T08:46:06.625Z,51.40
2018-01-14T08:48:33.265Z,51.30
2018-01-14T08:51:00.275Z,51.10
2018-01-14T08:53:26.912Z,51.30
2018-01-14T08:55:53.860Z,51.30
2018-01-14T08:58:20.488Z,51.30
2018-01-14T09:00:47.097Z,51.40
2018-01-14T09:03:13.706Z,51.30
2018-01-14T09:05:40.310Z,51.40
2018-01-14T09:08:06.944Z,51.40
2018-01-14T09:10:33.610Z,51.20
2018-01-14T09:13:00.582Z,51.00
2018-01-14T09:15:27.139Z,51.20
2018-01-14T09:17:54.029Z,51.10
2018-01-14T09:20:20.615Z,51.10
2018-01-14T09:22:47.203Z,51.10
2018-01-14T09:25:14.203Z,50.80
2018-01-14T09:27:40.887Z,51.10
2018-01-14T09:30:07.833Z,50.80
2018-01-14T09:32:34.824Z,50.90
2018-01-14T09:35:01.447Z,51.20
2018-01-14T09:37:28.079Z,51.10
2018-01-14T09:39:54.698Z,51.20
2018-01-14T09:42:21.733Z,50.90
2018-01-14T09:44:48.349Z,51.20
2018-01-14T09:47:14.966Z,51.10
2018-01-14T09:49:41.547Z,51.30
2018-01-14T09:52:08.215Z,51.30
2018-01-14T09:54:34.838Z,51.30
2018-01-14T09:57:01.786Z,51.20
2018-01-14T09:59:31.916Z,51.20
2018-01-14T10:01:58.866Z,51.50
2018-01-14T10:04:25.430Z,51.50
2018-01-14T10:06:52.023Z,52.00
2018-01-14T10:09:18.978Z,51.60
2018-01-14T10:11:45.606Z,51.70
2018-01-14T10:14:12.210Z,51.70
2018-01-14T10:16:38.851Z,51.60
2018-01-14T10:19:05.467Z,51.60
2018-01-14T10:21:32.474Z,51.40
2018-01-14T10:23:59.027Z,51.30
2018-01-14T10:26:25.590Z,51.30
2018-01-14T10:28:52.239Z,51.40
2018-01-14T10:31:18.835Z,51.30
2018-01-14T10:33:45.414Z,51.30
2018-01-14T10:36:12.029Z,51.10
2018-01-14T10:38:38.618Z,51.10
2018-01-14T10:41:05.230Z,51.10
2018-01-14T10:43:31.852Z,50.90
2018-01-14T10:45:58.567Z,50.90
2018-01-14T10:48:25.427Z,50.80
2018-01-14T10:50:52.023Z,50.90
2018-01-14T10:53:18.680Z,50.80
2018-01-14T10:55:45.314Z,50.70
2018-01-14T10:58:11.921Z,50.60
2018-01-14T11:00:44.614Z,50.30
2018-01-14T11:03:11.238Z,50.60
2018-01-14T11:05:38.253Z,50.30
2018-01-14T11:08:04.838Z,50.70
2018-01-14T11:10:31.443Z,50.60
2018-01-14T11:12:58.426Z,50.40
2018-01-14T11:15:25.011Z,50.70
2018-01-14T11:17:51.923Z,50.70
2018-01-14T11:20:18.530Z,50.80
2018-01-14T11:22:45.086Z,50.80
2018-01-14T11:25:11.675Z,50.70
2018-01-14T11:27:38.278Z,50.80
2018-01-14T11:30:06.408Z,50.90
2018-01-14T11:32:33.074Z,50.80
2018-01-14T11:34:59.688Z,50.80
2018-01-14T11:37:26.322Z,50.80
2018-01-14T11:39:53.099Z,50.80
2018-01-14T11:42:19.713Z,50.70
2018-01-14T11:44:46.319Z,50.70
2018-01-14T11:47:13.423Z,50.40
2018-01-14T11:49:40.007Z,50.80
2018-01-14T11:52:06.998Z,50.40
2018-01-14T11:54:33.651Z,50.70
2018-01-14T11:57:00.241Z,50.70
2018-01-14T11:59:26.940Z,50.70
2018-01-14T12:01:53.555Z,50.60
2018-01-14T12:04:20.195Z,50.70
2018-01-14T12:06:46.878Z,50.60
2018-01-14T12:09:13.447Z,50.70
2018-01-14T12:11:40.024Z,50.80
2018-01-14T12:14:06.960Z,51.10
2018-01-14T12:16:33.555Z,51.10
2018-01-14T12:19:00.141Z,51.00
2018-01-14T12:21:26.779Z,50.70
2018-01-14T12:23:53.488Z,50.50
2018-01-14T12:26:20.087Z,50.30
2018-01-14T12:28:47.519Z,49.50
2018-01-14T12:31:14.151Z,49.80
2018-01-14T12:34:06.479Z,49.60
2018-01-14T12:36:33.074Z,49.80
2018-01-14T12:38:59.723Z,48.50
2018-01-14T12:41:26.406Z,50.10
2018-01-14T12:43:52.962Z,51.80
2018-01-14T12:46:19.526Z,48.30
2018-01-14T13:03:20.254Z,73.60
2018-01-14T13:06:03.295Z,70.30
2018-01-14T13:08:29.964Z,72.60
2018-01-14T13:10:56.940Z,74.90
2018-01-14T13:13:23.602Z,76.10
2018-01-14T13:15:50.599Z,77.00
2018-01-14T13:18:17.579Z,76.00
2018-01-14T13:20:44.253Z,75.60
2018-01-14T13:23:10.927Z,76.70
2018-01-14T13:25:37.559Z,76.70
2018-01-14T13:28:04.592Z,77.70
2018-01-14T13:30:31.262Z,77.40
2018-01-14T13:32:57.863Z,76.60
2018-01-14T13:35:24.592Z,76.70
2018-01-14T13:37:51.177Z,76.50
2018-01-14T13:40:17.783Z,76.80
2018-01-14T13:42:44.513Z,76.80
2018-01-14T13:45:11.098Z,77.00
2018-01-14T13:47:37.722Z,77.40
2018-01-14T13:50:05.088Z,77.30
2018-01-14T13:52:31.736Z,76.90
2018-01-14T13:54:59.288Z,75.70
2018-01-14T13:57:25.939Z,75.20
2018-01-14T13:59:52.549Z,76.70
2018-01-14T14:02:19.258Z,77.90
2018-01-14T14:04:45.915Z,77.40
2018-01-14T14:07:12.947Z,76.80
2018-01-14T14:09:39.579Z,77.80
2018-01-14T14:12:06.182Z,76.60
2018-01-14T14:14:35.847Z,75.70
2018-01-14T14:17:02.861Z,76.20
2018-01-14T14:19:29.431Z,77.30
2018-01-14T14:21:56.051Z,76.40
2018-01-14T14:24:23.028Z,76.40
2018-01-14T14:26:52.028Z,76.00
2018-01-14T14:29:18.664Z,76.60
2018-01-14T14:31:45.700Z,77.10
2018-01-14T14:34:16.283Z,76.80
2018-01-14T14:36:42.885Z,77.20
2018-01-14T14:39:09.530Z,76.30
2018-01-14T14:41:36.124Z,77.30
2018-01-14T14:44:13.561Z,77.50
2018-01-14T14:46:40.219Z,77.90
2018-01-14T14:49:06.804Z,77.70
2018-01-14T14:51:33.915Z,78.30
2018-01-14T14:54:00.532Z,78.30
2018-01-14T14:56:27.224Z,77.80
2018-01-14T14:58:53.916Z,77.90
2018-01-14T15:01:20.519Z,77.90
2018-01-14T15:03:48.510Z,77.30
2018-01-14T15:06:20.559Z,77.70
2018-01-14T15:08:47.147Z,79.00
2018-01-14T15:11:13.759Z,79.30
2018-01-14T15:13:42.667Z,78.20
2018-01-14T15:16:09.260Z,77.60
2018-01-14T15:18:36.244Z,79.40
2018-01-14T15:21:02.847Z,78.80
2018-01-14T15:23:29.831Z,79.70
2018-01-14T15:25:56.396Z,79.70
2018-01-14T15:28:23.040Z,79.90
2018-01-14T15:30:53.991Z,78.80
2018-01-14T15:33:21.016Z,79.50
2018-01-14T15:35:47.669Z,79.80
2018-01-14T15:38:14.327Z,80.40
2018-01-14T15:40:40.957Z,81.40
2018-01-14T15:43:08.004Z,80.60
2018-01-14T15:45:34.994Z,80.10
2018-01-14T15:48:01.582Z,80.70
2018-01-14T15:50:28.605Z,81.30
2018-01-14T15:52:55.237Z,81.00
2018-01-14T15:55:21.900Z,79.90
2018-01-14T15:57:48.791Z,81.10
2018-01-14T16:00:16.373Z,82.30
2018-01-14T16:02:42.965Z,80.10
2018-01-14T16:05:10.021Z,81.90
2018-01-14T16:07:36.684Z,82.00
2018-01-14T16:10:03.373Z,81.80
2018-01-14T16:12:35.925Z,80.90
2018-01-14T16:15:02.517Z,82.30
2018-01-14T16:17:29.071Z,82.00
2018-01-14T16:20:13.028Z,81.20
2018-01-14T16:22:39.675Z,82.20
2018-01-14T16:25:06.347Z,81.40
2018-01-14T16:27:33.376Z,82.80
2018-01-14T16:30:04.568Z,82.50
2018-01-14T16:32:31.251Z,82.10
2018-01-14T16:34:57.873Z,82.30
2018-01-14T16:37:24.517Z,82.30
2018-01-14T16:39:51.161Z,82.30
2018-01-14T16:42:17.789Z,82.10
2018-01-14T16:44:44.519Z,82.10
2018-01-14T16:47:11.135Z,82.50
2018-01-14T16:49:37.825Z,82.90
2018-01-14T16:52:04.533Z,83.60
2018-01-14T16:54:31.136Z,83.50
2018-01-14T16:56:58.199Z,82.70
2018-01-14T16:59:25.156Z,83.50
2018-01-14T17:01:51.835Z,83.60
2018-01-14T17:04:18.555Z,83.50
2018-01-14T17:06:45.249Z,83.50
2018-01-14T17:09:12.301Z,82.80
2018-01-14T17:11:39.307Z,83.30
2018-01-14T17:14:05.959Z,83.00
2018-01-14T17:16:32.579Z,83.50
2018-01-14T17:18:59.232Z,83.80
2018-01-14T17:21:25.824Z,84.00
2018-01-14T17:24:13.710Z,83.70
2018-01-14T17:26:40.327Z,83.00
2018-01-14T17:29:06.907Z,84.10
2018-01-14T17:31:34.379Z,84.60
2018-01-14T17:34:01.079Z,84.40
2018-01-14T17:36:27.677Z,83.80
2018-01-14T17:38:54.352Z,83.10
2018-01-14T17:41:20.915Z,84.00
2018-01-14T17:43:49.912Z,83.20
2018-01-14T17:46:17.256Z,83.90
2018-01-14T17:48:43.920Z,83.80
2018-01-14T17:51:10.530Z,84.20
2018-01-14T17:53:37.873Z,83.80
2018-01-14T17:56:23.580Z,84.60
2018-01-14T17:58:50.626Z,85.00
2018-01-14T18:01:17.685Z,83.80
2018-01-14T18:04:01.265Z,84.40
2018-01-14T18:06:28.206Z,85.20
2018-01-14T18:08:54.799Z,85.20
2018-01-14T18:11:21.797Z,84.50
2018-01-14T18:13:50.503Z,84.50
2018-01-14T18:16:38.700Z,85.40
2018-01-14T18:19:05.372Z,85.20
2018-01-14T18:21:33.029Z,85.20
2018-01-14T18:23:59.732Z,84.80
2018-01-14T18:26:49.752Z,84.10
2018-01-14T18:29:16.442Z,85.10
2018-01-14T18:31:43.062Z,84.10
2018-01-14T18:34:09.788Z,85.50
2018-01-14T18:36:36.817Z,84.50
2018-01-14T18:39:03.427Z,85.20
2018-01-14T18:41:35.990Z,84.60
2018-01-14T18:44:02.610Z,85.70
2018-01-14T18:46:29.628Z,85.30
2018-01-14T18:48:56.281Z,85.80
2018-01-14T18:51:22.896Z,85.50
2018-01-14T18:54:04.376Z,85.70
2018-01-14T18:56:30.997Z,85.30
2018-01-14T18:58:57.613Z,85.40
2018-01-14T19:01:24.310Z,85.50
2018-01-14T19:03:50.907Z,85.20
2018-01-14T19:06:17.574Z,85.50
2018-01-14T19:08:44.611Z,85.20
2018-01-14T19:11:11.255Z,86.00
2018-01-14T19:16:54.733Z,86.10
2018-01-14T19:19:21.841Z,85.00
2018-01-14T19:21:48.477Z,85.70
2018-01-14T19:24:15.079Z,85.70
2018-01-14T19:26:42.190Z,85.40
2018-01-14T19:29:08.878Z,85.40
2018-01-14T19:31:35.445Z,86.30
2018-01-14T19:34:02.022Z,86.50
2018-01-14T19:36:29.136Z,85.30
2018-01-14T19:39:06.900Z,86.00
2018-01-14T19:41:34.576Z,86.30
2018-01-14T19:44:15.209Z,86.10
2018-01-14T19:46:50.127Z,85.30
2018-01-14T19:49:22.645Z,85.80
2018-01-14T19:51:49.263Z,86.80
2018-01-14T19:54:38.153Z,86.00
2018-01-14T19:57:08.148Z,86.30
2018-01-14T19:59:34.857Z,86.60
2018-01-14T20:02:01.509Z,86.50
2018-01-14T20:04:28.581Z,86.20
2018-01-14T20:06:55.202Z,86.60
2018-01-14T20:09:22.229Z,86.60
2018-01-14T20:11:48.973Z,86.40
2018-01-14T20:14:15.947Z,85.90
2018-01-14T20:17:01.907Z,86.20
2018-01-14T20:19:28.541Z,86.80
2018-01-14T20:21:55.162Z,86.40
2018-01-14T20:24:28.839Z,86.60
2018-01-14T20:26:55.485Z,86.40
2018-01-14T20:32:18.038Z,86.00
2018-01-14T20:34:45.659Z,86.80
2018-01-14T20:37:12.308Z,86.90
2018-01-14T20:39:39.316Z,86.60
2018-01-14T20:42:05.992Z,86.40
2018-01-14T20:44:33.009Z,86.60
2018-01-14T20:47:10.030Z,86.80
2018-01-14T20:49:36.664Z,86.80
2018-01-14T20:52:03.697Z,86.90
2018-01-14T20:54:30.449Z,87.40
2018-01-14T20:57:03.769Z,87.40
2018-01-14T20:59:30.651Z,87.30
2018-01-14T21:01:57.267Z,87.40
2018-01-14T21:04:33.797Z,87.20
2018-01-14T21:07:01.804Z,86.90
2018-01-14T21:09:28.537Z,86.80
2018-01-14T21:11:55.172Z,86.90
2018-01-14T21:14:21.775Z,87.30
2018-01-14T21:16:48.845Z,87.30
2018-01-14T21:19:15.455Z,87.00
2018-01-14T21:21:42.047Z,87.00
2018-01-14T21:27:03.308Z,87.40
2018-01-14T21:29:30.041Z,87.50
2018-01-14T21:31:56.666Z,87.10
2018-01-14T21:34:23.276Z,87.70
2018-01-14T21:36:50.276Z,87.80
2018-01-14T21:39:16.852Z,87.10
2018-01-14T21:41:43.475Z,87.50
2018-01-14T21:44:10.552Z,87.30
2018-01-14T21:46:37.165Z,87.20
2018-01-14T21:49:03.757Z,87.20
2018-01-14T21:51:30.815Z,87.10
2018-01-14T21:53:57.432Z,87.40
2018-01-14T21:56:24.073Z,87.20
2018-01-14T21:58:50.739Z,87.20
2018-01-14T22:01:17.820Z,87.80
2018-01-14T22:03:44.810Z,87.80
2018-01-14T22:06:11.461Z,87.00
2018-01-14T22:08:38.056Z,87.60
2018-01-14T22:11:04.726Z,88.00
2018-01-14T22:13:31.332Z,87.20
2018-01-14T22:15:57.981Z,88.00
2018-01-14T22:18:24.657Z,87.40
2018-01-14T22:20:51.285Z,88.00
2018-01-14T22:29:13.351Z,87.40
2018-01-14T22:34:33.236Z,87.50
2018-01-14T22:36:59.892Z,88.10
2018-01-14T22:39:38.405Z,87.60
2018-01-14T22:42:05.011Z,87.60
2018-01-14T22:44:31.579Z,86.90
2018-01-14T22:46:58.253Z,88.10
2018-01-14T22:49:25.296Z,87.80
2018-01-14T22:51:52.295Z,87.70
2018-01-14T22:54:18.978Z,87.40
2018-01-14T22:56:46.048Z,87.90
2018-01-14T22:59:12.681Z,87.90
2018-01-14T23:01:39.704Z,87.60
2018-01-14T23:04:06.304Z,87.60
2018-01-14T23:06:32.942Z,87.80
2018-01-14T23:08:59.665Z,88.00
2018-01-14T23:11:26.305Z,87.90
2018-01-14T23:13:52.985Z,87.60
2018-01-14T23:16:19.961Z,87.40
2018-01-14T23:18:47.009Z,87.80
2018-01-14T23:21:14.048Z,87.90
2018-01-14T23:23:57.709Z,88.00
2018-01-14T23:26:24.357Z,87.70
2018-01-14T23:28:55.032Z,87.60
2018-01-14T23:31:21.709Z,87.50
2018-01-14T23:33:48.739Z,87.90
2018-01-14T23:36:15.849Z,87.70
2018-01-14T23:38:42.495Z,87.90
2018-01-14T23:41:13.339Z,87.90
2018-01-14T23:43:40.292Z,87.10
2018-01-14T23:46:06.941Z,88.10
2018-01-14T23:48:33.511Z,88.20
2018-01-14T23:51:00.601Z,88.00
2018-01-14T23:53:40.781Z,88.00
2018-01-14T23:56:07.469Z,87.90
2018-01-14T23:58:34.110Z,88.00
